createdAt,value
2023-04-29T00:01:32.640Z,4.13
2023-04-29T00:04:00.160Z,4.30
2023-04-29T00:06:28.465Z,4.67
2023-04-29T00:08:56.031Z,5.27
2023-04-29T00:11:23.499Z,5.97
2023-04-29T00:13:50.868Z,3.80
2023-04-29T00:16:18.855Z,5.10
2023-04-29T00:18:46.374Z,4.50
2023-04-29T00:21:13.925Z,4.60
2023-04-29T00:23:41.294Z,4.17
2023-04-29T00:26:08.689Z,4.57
2023-04-29T00:28:37.126Z,3.67
2023-04-29T00:31:04.665Z,4.73
2023-04-29T00:33:32.267Z,4.40
2023-04-29T00:35:59.591Z,4.07
2023-04-29T00:38:26.930Z,4.13
2023-04-29T00:40:54.750Z,4.50
2023-04-29T00:43:22.515Z,4.40
2023-04-29T00:45:50.981Z,5.03
2023-04-29T00:48:19.044Z,4.77
2023-04-29T00:50:46.472Z,4.07
2023-04-29T00:53:14.367Z,4.63
2023-04-29T00:55:42.255Z,4.53
2023-04-29T00:58:10.525Z,5.17
2023-04-29T01:00:38.596Z,4.57
2023-04-29T01:03:06.617Z,4.80
2023-04-29T01:05:34.509Z,5.33
2023-04-29T01:08:05.434Z,4.23
2023-04-29T01:10:36.650Z,5.40
2023-04-29T01:13:27.004Z,4.50
2023-04-29T01:16:01.153Z,5.30
2023-04-29T01:18:38.115Z,3.97
2023-04-29T01:21:05.907Z,4.70
2023-04-29T01:23:33.196Z,4.07
2023-04-29T01:26:00.745Z,4.60
2023-04-29T01:29:02.951Z,4.60
2023-04-29T01:31:43.489Z,3.97
2023-04-29T01:34:23.930Z,4.37
2023-04-29T01:37:01.582Z,4.37
2023-04-29T01:39:32.378Z,5.07
2023-04-29T01:42:10.016Z,3.87
2023-04-29T01:44:39.274Z,4.50
2023-04-29T01:47:07.041Z,4.53
2023-04-29T01:49:41.282Z,4.13
2023-04-29T01:52:08.667Z,3.93
2023-04-29T01:54:38.502Z,4.43
2023-04-29T01:57:05.968Z,4.33
2023-04-29T01:59:47.062Z,4.83
2023-04-29T02:02:33.047Z,3.73
2023-04-29T02:05:11.190Z,4.03
2023-04-29T02:07:42.581Z,5.17
2023-04-29T02:10:10.217Z,4.20
2023-04-29T02:12:40.960Z,4.03
2023-04-29T02:15:09.015Z,4.47
2023-04-29T02:17:36.426Z,4.73
2023-04-29T02:20:03.892Z,4.57
2023-04-29T02:22:31.358Z,4.53
2023-04-29T02:24:58.748Z,3.97
2023-04-29T02:27:26.657Z,4.13
2023-04-29T02:29:54.965Z,4.50
2023-04-29T02:32:22.290Z,4.13
2023-04-29T02:34:49.905Z,4.43
2023-04-29T02:37:17.409Z,4.47
2023-04-29T02:39:44.764Z,4.67
2023-04-29T02:42:13.719Z,4.33
2023-04-29T02:44:42.486Z,4.67
2023-04-29T02:47:09.796Z,4.33
2023-04-29T02:49:37.275Z,5.27
2023-04-29T02:52:04.994Z,4.70
2023-04-29T02:54:34.232Z,4.83
2023-04-29T02:57:01.543Z,4.90
2023-04-29T02:59:29.096Z,4.40
2023-04-29T03:01:57.225Z,4.27
2023-04-29T03:04:24.736Z,3.67
2023-04-29T03:06:52.170Z,4.40
2023-04-29T03:09:21.438Z,4.10
2023-04-29T03:11:49.041Z,4.77
2023-04-29T03:14:17.174Z,4.27
2023-04-29T03:16:44.728Z,3.97
2023-04-29T03:19:12.365Z,4.17
2023-04-29T03:21:39.907Z,4.10
2023-04-29T03:24:07.776Z,4.50
2023-04-29T03:26:35.711Z,3.77
2023-04-29T03:29:04.433Z,4.37
2023-04-29T03:31:31.861Z,3.40
2023-04-29T03:33:59.153Z,4.03
2023-04-29T03:36:26.796Z,3.93
2023-04-29T03:39:01.405Z,3.70
2023-04-29T03:41:29.968Z,4.43
2023-04-29T03:44:00.787Z,3.77
2023-04-29T03:46:29.648Z,4.07
2023-04-29T03:48:57.696Z,3.87
2023-04-29T03:51:25.691Z,5.07
2023-04-29T03:53:59.194Z,4.37
2023-04-29T03:56:27.095Z,4.73
2023-04-29T03:58:54.732Z,3.57
2023-04-29T04:01:24.054Z,3.70
2023-04-29T04:03:52.827Z,3.97
2023-04-29T04:06:20.349Z,3.77
2023-04-29T04:08:48.414Z,4.20
2023-04-29T04:11:19.848Z,4.07
2023-04-29T04:13:56.744Z,4.87
2023-04-29T04:16:24.886Z,4.17
2023-04-29T04:18:53.167Z,4.13
2023-04-29T04:21:20.702Z,4.70
2023-04-29T04:23:56.622Z,5.17
2023-04-29T04:26:24.830Z,4.23
2023-04-29T04:28:58.160Z,4.80
2023-04-29T04:31:48.230Z,4.80
2023-04-29T04:34:17.088Z,3.67
2023-04-29T04:36:46.912Z,4.47
2023-04-29T04:39:15.507Z,4.93
2023-04-29T04:41:43.292Z,4.77
2023-04-29T04:44:10.912Z,5.20
2023-04-29T04:47:03.807Z,4.63
2023-04-29T04:49:41.911Z,4.93
2023-04-29T04:52:09.528Z,4.60
2023-04-29T04:54:37.026Z,4.60
2023-04-29T04:57:12.515Z,4.27
2023-04-29T04:59:40.053Z,3.73
2023-04-29T05:02:08.728Z,5.67
2023-04-29T05:04:36.182Z,4.90
2023-04-29T05:07:03.552Z,4.40
2023-04-29T05:09:38.583Z,4.73
2023-04-29T05:12:06.294Z,4.40
2023-04-29T05:14:33.961Z,4.80
2023-04-29T05:17:01.361Z,4.97
2023-04-29T05:19:29.123Z,4.53
2023-04-29T05:21:57.141Z,4.63
2023-04-29T05:24:24.843Z,5.27
2023-04-29T05:26:54.103Z,4.57
2023-04-29T05:29:21.565Z,5.88
2023-04-29T05:31:56.751Z,5.10
2023-04-29T05:34:24.604Z,4.60
2023-04-29T05:36:52.988Z,5.43
2023-04-29T05:39:20.506Z,5.13
2023-04-29T05:41:59.197Z,4.97
2023-04-29T05:44:37.702Z,4.23
2023-04-29T05:47:06.673Z,4.23
2023-04-29T05:49:34.137Z,4.20
2023-04-29T05:52:06.469Z,4.50
2023-04-29T05:54:38.764Z,4.37
2023-04-29T05:57:07.357Z,4.53
2023-04-29T05:59:34.801Z,4.20
2023-04-29T06:02:05.678Z,4.23
2023-04-29T06:04:35.155Z,4.70
2023-04-29T06:07:21.703Z,4.13
2023-04-29T06:09:52.009Z,4.63
2023-04-29T06:12:19.769Z,4.97
2023-04-29T06:14:47.822Z,4.60
2023-04-29T06:17:15.248Z,4.53
2023-04-29T06:19:42.923Z,4.07
2023-04-29T06:22:10.976Z,4.00
2023-04-29T06:24:41.811Z,3.90
2023-04-29T06:27:10.858Z,3.53
2023-04-29T06:29:38.542Z,4.20
2023-04-29T06:32:08.933Z,3.40
2023-04-29T06:34:37.208Z,3.67
2023-04-29T06:37:38.184Z,3.50
2023-04-29T06:40:32.532Z,3.77
2023-04-29T06:43:11.301Z,4.27
2023-04-29T06:45:51.804Z,3.97
2023-04-29T06:48:22.762Z,3.50
2023-04-29T06:50:54.420Z,4.10
2023-04-29T06:53:22.504Z,3.57
2023-04-29T06:55:49.898Z,4.00
2023-04-29T06:58:17.933Z,3.27
2023-04-29T07:00:46.431Z,4.50
2023-04-29T07:03:14.428Z,3.77
2023-04-29T07:05:45.628Z,4.47
2023-04-29T07:08:13.457Z,3.97
2023-04-29T07:10:44.303Z,3.97
2023-04-29T07:13:12.099Z,3.40
2023-04-29T07:15:42.390Z,3.83
2023-04-29T07:18:11.382Z,3.60
2023-04-29T07:20:38.904Z,3.23
2023-04-29T07:23:06.699Z,3.77
2023-04-29T07:25:34.558Z,3.50
2023-04-29T07:28:02.143Z,3.63
2023-04-29T07:30:29.834Z,3.40
2023-04-29T07:32:57.942Z,3.43
2023-04-29T07:35:25.425Z,3.67
2023-04-29T07:37:54.784Z,3.50
2023-04-29T07:40:22.535Z,3.47
2023-04-29T07:42:52.371Z,2.83
2023-04-29T07:45:20.134Z,3.37
2023-04-29T07:47:47.758Z,2.97
2023-04-29T07:50:16.134Z,3.20
2023-04-29T07:52:43.843Z,3.73
2023-04-29T07:55:11.426Z,3.10
2023-04-29T07:57:39.092Z,3.23
2023-04-29T08:00:07.661Z,3.00
2023-04-29T08:02:44.052Z,3.20
2023-04-29T08:05:14.639Z,2.67
2023-04-29T08:07:42.373Z,3.80
2023-04-29T08:10:10.708Z,3.13
2023-04-29T08:12:38.376Z,2.97
2023-04-29T08:15:07.782Z,2.90
2023-04-29T08:17:37.802Z,3.00
2023-04-29T08:20:05.784Z,3.23
2023-04-29T08:22:34.299Z,2.80
2023-04-29T08:25:03.237Z,2.87
2023-04-29T08:27:31.244Z,3.10
2023-04-29T08:29:58.886Z,3.30
2023-04-29T08:32:26.396Z,3.47
2023-04-29T08:34:54.083Z,3.30
2023-04-29T08:37:22.587Z,3.27
2023-04-29T08:39:50.101Z,3.77
2023-04-29T08:42:21.040Z,2.77
2023-04-29T08:44:49.543Z,3.10
2023-04-29T08:47:17.145Z,2.80
2023-04-29T08:49:44.518Z,3.40
2023-04-29T08:52:12.170Z,2.73
2023-04-29T08:54:39.496Z,2.63
2023-04-29T08:57:07.350Z,3.07
2023-04-29T08:59:34.722Z,2.97
2023-04-29T09:02:04.214Z,2.93
2023-04-29T09:04:51.277Z,3.03
2023-04-29T09:07:19.111Z,2.50
2023-04-29T09:09:47.609Z,2.57
2023-04-29T09:12:15.170Z,3.43
2023-04-29T09:14:42.754Z,2.67
2023-04-29T09:17:10.117Z,2.70
2023-04-29T09:19:37.824Z,3.33
2023-04-29T09:22:07.643Z,2.33
2023-04-29T09:24:35.498Z,2.23
2023-04-29T09:27:03.605Z,2.47
2023-04-29T09:29:33.207Z,2.40
2023-04-29T09:32:00.893Z,3.13
2023-04-29T09:34:37.444Z,3.00
2023-04-29T09:37:04.867Z,2.37
2023-04-29T09:39:39.225Z,2.60
2023-04-29T09:42:07.479Z,2.53
2023-04-29T09:44:36.134Z,2.87
2023-04-29T09:47:05.781Z,2.27
2023-04-29T09:49:41.235Z,2.57
2023-04-29T09:52:11.023Z,2.30
2023-04-29T09:54:39.745Z,3.00
2023-04-29T09:57:08.140Z,3.40
2023-04-29T09:59:36.868Z,2.40
2023-04-29T10:02:19.753Z,2.83
2023-04-29T10:04:48.834Z,2.77
2023-04-29T10:07:17.013Z,2.53
2023-04-29T10:09:48.254Z,2.57
2023-04-29T10:12:17.617Z,2.57
2023-04-29T10:14:48.999Z,3.00
2023-04-29T10:17:23.162Z,2.93
2023-04-29T10:19:59.415Z,2.83
2023-04-29T10:22:45.426Z,3.43
2023-04-29T10:25:14.657Z,2.77
2023-04-29T10:27:44.665Z,2.80
2023-04-29T10:30:16.585Z,2.77
2023-04-29T10:32:51.240Z,2.77
2023-04-29T10:35:20.567Z,3.60
2023-04-29T10:37:48.997Z,3.07
2023-04-29T10:40:18.132Z,3.27
2023-04-29T10:42:50.285Z,2.90
2023-04-29T10:45:26.937Z,2.93
2023-04-29T10:48:06.924Z,2.60
2023-04-29T10:50:34.972Z,2.77
2023-04-29T10:53:03.232Z,3.57
2023-04-29T10:55:31.590Z,2.87
2023-04-29T10:57:59.191Z,2.70
2023-04-29T11:00:30.723Z,3.00
2023-04-29T11:02:59.742Z,3.70
2023-04-29T11:05:31.986Z,3.00
2023-04-29T11:08:13.061Z,3.23
2023-04-29T11:10:44.245Z,2.83
2023-04-29T11:13:31.245Z,2.80
2023-04-29T11:16:06.169Z,3.07
2023-04-29T11:18:34.928Z,3.00
2023-04-29T11:21:07.658Z,2.90
2023-04-29T11:23:35.662Z,3.33
2023-04-29T11:26:04.106Z,3.23
2023-04-29T11:28:32.662Z,2.90
2023-04-29T11:31:00.528Z,2.90
2023-04-29T11:33:28.882Z,2.80
2023-04-29T11:35:58.100Z,2.73
2023-04-29T11:38:29.204Z,2.70
2023-04-29T11:40:57.212Z,2.60
2023-04-29T11:43:25.229Z,2.27
2023-04-29T11:45:53.740Z,3.00
2023-04-29T11:48:27.489Z,2.57
2023-04-29T11:50:58.162Z,2.30
2023-04-29T11:53:30.104Z,2.10
2023-04-29T11:55:57.834Z,2.60
2023-04-29T11:58:25.671Z,3.07
2023-04-29T12:00:53.307Z,2.63
2023-04-29T12:03:21.781Z,2.47
2023-04-29T12:05:52.532Z,2.60
2023-04-29T12:08:24.881Z,2.40
2023-04-29T12:10:56.473Z,2.27
2023-04-29T12:13:24.431Z,2.20
2023-04-29T12:15:52.429Z,1.90
2023-04-29T12:18:20.055Z,2.00
2023-04-29T12:20:48.312Z,2.40
2023-04-29T12:23:19.988Z,2.30
2023-04-29T12:26:04.885Z,2.10
2023-04-29T12:28:32.336Z,2.23
2023-04-29T12:30:59.965Z,2.03
2023-04-29T12:33:28.201Z,2.33
2023-04-29T12:35:57.506Z,1.80
2023-04-29T12:38:28.279Z,1.87
2023-04-29T12:40:56.456Z,2.40
2023-04-29T12:43:27.933Z,2.13
2023-04-29T12:45:56.799Z,2.10
2023-04-29T12:48:31.560Z,2.03
2023-04-29T12:51:01.404Z,2.40
2023-04-29T12:53:30.827Z,1.53
2023-04-29T12:55:58.789Z,2.27
2023-04-29T12:58:29.330Z,2.60
2023-04-29T13:00:56.782Z,1.97
2023-04-29T13:03:24.949Z,1.97
2023-04-29T13:05:54.661Z,1.87
2023-04-29T13:08:23.075Z,2.00
2023-04-29T13:10:51.023Z,2.00
2023-04-29T13:13:18.501Z,2.30
2023-04-29T13:15:46.248Z,1.70
2023-04-29T13:18:13.633Z,2.20
2023-04-29T13:20:42.592Z,1.80
2023-04-29T13:23:10.488Z,2.23
2023-04-29T13:25:37.855Z,1.83
2023-04-29T13:28:05.605Z,1.77
2023-04-29T13:30:33.480Z,1.83
2023-04-29T13:33:08.768Z,1.50
2023-04-29T13:35:41.637Z,1.80
2023-04-29T13:38:09.574Z,1.70
2023-04-29T13:40:40.680Z,1.57
2023-04-29T13:43:15.463Z,1.80
2023-04-29T13:45:48.048Z,1.63
2023-04-29T13:48:49.915Z,1.67
2023-04-29T13:51:47.880Z,1.67
2023-04-29T13:56:55.000Z,1.80
2023-04-29T13:59:39.956Z,2.20
2023-04-29T14:04:31.365Z,1.77
2023-04-29T14:07:00.889Z,1.70
2023-04-29T14:09:28.229Z,1.30
2023-04-29T14:11:55.795Z,1.60
2023-04-29T14:14:23.289Z,1.40
2023-04-29T14:16:50.909Z,1.53
2023-04-29T14:19:18.391Z,1.60
2023-04-29T14:21:46.025Z,1.60
2023-04-29T14:24:13.394Z,1.67
2023-04-29T14:26:41.853Z,1.60
2023-04-29T14:29:09.242Z,1.73
2023-04-29T14:31:38.442Z,1.40
2023-04-29T14:34:06.376Z,1.40
2023-04-29T14:36:34.057Z,1.20
2023-04-29T14:39:01.548Z,1.50
2023-04-29T14:41:28.972Z,1.83
2023-04-29T14:43:56.376Z,1.80
2023-04-29T14:46:24.942Z,1.93
2023-04-29T14:48:52.770Z,1.50
2023-04-29T14:51:20.460Z,1.43
2023-04-29T14:53:47.861Z,1.57
2023-04-29T14:56:17.697Z,1.40
2023-04-29T14:58:45.148Z,1.30
2023-04-29T15:01:12.814Z,1.30
2023-04-29T15:03:44.194Z,1.40
2023-04-29T15:06:12.464Z,1.23
2023-04-29T15:08:40.002Z,1.57
2023-04-29T15:11:07.404Z,1.53
2023-04-29T15:13:34.748Z,1.23
2023-04-29T15:16:02.083Z,1.27
2023-04-29T15:18:29.448Z,1.10
2023-04-29T15:20:56.784Z,1.30
2023-04-29T15:23:24.353Z,1.30
2023-04-29T15:25:53.274Z,1.40
2023-04-29T15:28:23.076Z,1.07
2023-04-29T15:30:50.484Z,1.83
2023-04-29T15:33:17.903Z,1.40
2023-04-29T15:35:45.548Z,1.43
2023-04-29T15:38:12.994Z,1.40
2023-04-29T15:40:40.492Z,1.50
2023-04-29T15:43:07.865Z,1.50
2023-04-29T15:45:35.226Z,1.33
2023-04-29T15:48:03.446Z,1.10
2023-04-29T15:50:31.304Z,1.13
2023-04-29T15:53:00.750Z,1.43
2023-04-29T15:55:28.148Z,1.40
2023-04-29T15:57:56.091Z,1.20
2023-04-29T16:00:23.616Z,1.33
2023-04-29T16:02:51.082Z,1.20
2023-04-29T16:05:18.429Z,1.13
2023-04-29T16:07:45.947Z,4.57
2023-04-29T16:10:13.236Z,1.10
2023-04-29T16:12:40.625Z,1.10
2023-04-29T16:15:08.612Z,1.10
2023-04-29T16:17:36.925Z,1.07
2023-04-29T16:20:05.424Z,1.40
2023-04-29T16:22:32.937Z,1.17
2023-04-29T16:25:00.242Z,1.00
2023-04-29T16:27:30.136Z,3.20
2023-04-29T16:29:57.706Z,1.50
2023-04-29T16:32:27.584Z,1.50
2023-04-29T16:34:55.249Z,1.70
2023-04-29T16:37:22.838Z,1.53
2023-04-29T16:39:50.521Z,1.73
2023-04-29T16:42:19.526Z,1.90
2023-04-29T16:44:46.906Z,1.77
2023-04-29T16:47:14.668Z,2.20
2023-04-29T16:49:42.544Z,1.70
2023-04-29T16:52:10.010Z,1.70
2023-04-29T16:54:37.569Z,1.40
2023-04-29T16:57:05.820Z,1.50
2023-04-29T16:59:33.308Z,1.50
2023-04-29T17:02:04.241Z,1.60
2023-04-29T17:04:32.273Z,1.50
2023-04-29T17:07:01.418Z,1.57
2023-04-29T17:09:28.821Z,1.70
2023-04-29T17:11:56.192Z,1.47
2023-04-29T17:14:24.219Z,1.30
2023-04-29T17:16:51.630Z,1.57
2023-04-29T17:19:19.317Z,1.33
2023-04-29T17:21:46.749Z,1.20
2023-04-29T17:24:14.229Z,1.70
2023-04-29T17:26:41.558Z,1.40
2023-04-29T17:29:08.945Z,1.50
2023-04-29T17:31:45.294Z,1.23
2023-04-29T17:34:19.811Z,1.63
2023-04-29T17:36:47.637Z,1.23
2023-04-29T17:39:15.366Z,1.40
2023-04-29T17:41:42.800Z,1.20
2023-04-29T17:44:10.902Z,1.50
2023-04-29T17:46:38.551Z,1.30
2023-04-29T17:49:06.148Z,1.30
2023-04-29T17:51:34.425Z,1.20
2023-04-29T17:54:02.489Z,1.40
2023-04-29T17:56:29.992Z,1.20
2023-04-29T17:58:57.305Z,1.40
2023-04-29T18:01:24.701Z,1.40
2023-04-29T18:03:52.261Z,1.40
2023-04-29T18:06:19.844Z,1.47
2023-04-29T18:08:47.493Z,1.50
2023-04-29T18:11:17.668Z,1.37
2023-04-29T18:13:45.399Z,1.30
2023-04-29T18:16:13.225Z,1.10
2023-04-29T18:18:46.122Z,1.23
2023-04-29T18:21:19.932Z,1.40
2023-04-29T18:23:47.785Z,1.30
2023-04-29T18:26:16.702Z,1.30
2023-04-29T18:28:45.620Z,1.53
2023-04-29T18:31:13.879Z,1.40
2023-04-29T18:33:41.232Z,1.37
2023-04-29T18:36:08.657Z,1.80
2023-04-29T18:38:36.306Z,1.10
2023-04-29T18:41:05.160Z,1.20
2023-04-29T18:43:32.521Z,1.30
2023-04-29T18:45:59.950Z,1.20
2023-04-29T18:48:30.977Z,1.20
2023-04-29T18:51:00.144Z,1.60
2023-04-29T18:53:27.841Z,1.40
2023-04-29T18:55:55.389Z,1.30
2023-04-29T18:58:22.876Z,1.60
2023-04-29T19:00:50.320Z,1.50
2023-04-29T19:03:17.703Z,1.27
2023-04-29T19:05:45.409Z,2.10
2023-04-29T19:08:16.359Z,2.38
2023-04-29T19:10:44.542Z,2.10
2023-04-29T19:13:12.029Z,2.00
2023-04-29T19:15:39.790Z,1.93
2023-04-29T19:18:08.504Z,2.33
2023-04-29T19:20:36.348Z,1.80
2023-04-29T19:23:03.836Z,2.40
2023-04-29T19:25:31.989Z,2.00
2023-04-29T19:27:59.558Z,1.87
2023-04-29T19:30:26.953Z,1.83
2023-04-29T19:32:54.620Z,2.00
2023-04-29T19:35:22.790Z,2.00
2023-04-29T19:37:54.864Z,1.70
2023-04-29T19:40:25.859Z,1.80
2023-04-29T19:42:53.797Z,1.63
2023-04-29T19:45:21.705Z,1.80
2023-04-29T19:47:50.453Z,2.13
2023-04-29T19:50:18.357Z,1.80
2023-04-29T19:52:46.751Z,1.77
2023-04-29T19:55:20.527Z,1.90
2023-04-29T19:57:53.878Z,1.77
2023-04-29T20:00:21.927Z,1.73
2023-04-29T20:02:53.467Z,1.70
2023-04-29T20:05:20.894Z,1.80
2023-04-29T20:07:48.774Z,2.03
2023-04-29T20:10:16.397Z,2.10
2023-04-29T20:12:44.382Z,2.27
2023-04-29T20:15:12.744Z,2.17
2023-04-29T20:17:40.353Z,2.00
2023-04-29T20:20:11.225Z,1.63
2023-04-29T20:22:39.368Z,1.77
2023-04-29T20:25:07.509Z,1.60
2023-04-29T20:27:35.028Z,2.00
2023-04-29T20:30:02.729Z,1.77
2023-04-29T20:32:30.840Z,1.90
2023-04-29T20:34:58.390Z,2.10
2023-04-29T20:37:25.943Z,1.97
2023-04-29T20:39:53.460Z,1.57
2023-04-29T20:42:21.038Z,2.20
2023-04-29T20:44:48.480Z,2.07
2023-04-29T20:47:15.842Z,1.80
2023-04-29T20:49:43.262Z,2.10
2023-04-29T20:52:10.618Z,2.10
2023-04-29T20:54:38.137Z,2.10
2023-04-29T20:57:05.921Z,2.20
2023-04-29T20:59:34.301Z,2.57
2023-04-29T21:02:01.773Z,2.33
2023-04-29T21:04:29.423Z,2.00
2023-04-29T21:06:56.877Z,2.17
2023-04-29T21:09:24.332Z,2.33
2023-04-29T21:11:52.755Z,2.07
2023-04-29T21:14:20.088Z,2.50
2023-04-29T21:16:47.454Z,1.97
2023-04-29T21:19:14.954Z,2.20
2023-04-29T21:21:42.258Z,2.20
2023-04-29T21:24:09.647Z,2.27
2023-04-29T21:26:36.985Z,2.13
2023-04-29T21:29:04.488Z,2.63
2023-04-29T21:31:32.277Z,2.40
2023-04-29T21:34:00.632Z,3.00
2023-04-29T21:36:28.303Z,2.30
2023-04-29T21:38:55.713Z,2.70
2023-04-29T21:41:23.199Z,2.60
2023-04-29T21:43:51.128Z,2.47
2023-04-29T21:46:19.301Z,2.60
2023-04-29T21:48:47.088Z,2.50
2023-04-29T21:51:14.469Z,2.87
2023-04-29T21:53:42.793Z,2.90
2023-04-29T21:56:10.158Z,2.90
2023-04-29T21:58:37.532Z,3.20
2023-04-29T22:01:25.112Z,2.70
2023-04-29T22:03:53.692Z,2.90
2023-04-29T22:06:21.261Z,2.47
2023-04-29T22:08:48.830Z,2.37
2023-04-29T22:11:16.452Z,2.70
2023-04-29T22:13:45.375Z,2.77
2023-04-29T22:16:13.020Z,2.93
2023-04-29T22:18:40.572Z,2.80
2023-04-29T22:21:08.011Z,2.57
2023-04-29T22:23:35.390Z,2.60
2023-04-29T22:26:02.721Z,2.70
2023-04-29T22:28:30.247Z,2.63
2023-04-29T22:30:57.591Z,2.67
2023-04-29T22:33:24.958Z,2.63
2023-04-29T22:35:52.357Z,2.43
2023-04-29T22:38:19.873Z,2.70
2023-04-29T22:40:53.619Z,2.60
2023-04-29T22:43:21.138Z,3.07
2023-04-29T22:45:52.801Z,2.77
2023-04-29T22:48:20.645Z,2.57
2023-04-29T22:50:52.021Z,3.00
2023-04-29T22:53:19.591Z,2.73
2023-04-29T22:55:57.114Z,2.60
2023-04-29T22:58:25.452Z,3.00
2023-04-29T23:00:57.027Z,2.77
2023-04-29T23:03:24.670Z,2.70
2023-04-29T23:05:52.491Z,3.10
2023-04-29T23:08:19.801Z,2.87
2023-04-29T23:10:48.961Z,3.07
2023-04-29T23:13:16.654Z,2.50
2023-04-29T23:15:44.154Z,2.80
2023-04-29T23:18:11.903Z,3.37
2023-04-29T23:20:39.385Z,2.67
2023-04-29T23:23:06.747Z,2.63
2023-04-29T23:25:35.536Z,2.57
2023-04-29T23:28:02.878Z,2.80
2023-04-29T23:30:30.273Z,3.00
2023-04-29T23:32:57.689Z,3.00
2023-04-29T23:35:25.022Z,3.03
2023-04-29T23:37:52.372Z,2.80
2023-04-29T23:40:19.940Z,2.80
2023-04-29T23:42:47.318Z,3.00
2023-04-29T23:45:14.705Z,2.70
2023-04-29T23:47:42.151Z,3.07
2023-04-29T23:50:09.739Z,3.07
2023-04-29T23:52:37.024Z,2.83
2023-04-29T23:55:04.695Z,3.07
2023-04-29T23:57:32.070Z,2.80
